Time;durP1;ratioP1;P1;durP2;ratioP2;P2;SDS_P1;SDS_P2;PMS_P1;PMS_P2;Temp;Humidity;BMP_temperature;BMP_pressure;BME280_temperature;BME280_humidity;BME280_pressure;Samples;Min_cycle;Max_cycle;Signal;HPM_P1;HPM_P2
2021/11/02 00:01:37;;;;;;;44.67;26.80;;;8.70;96.70;;;;;;4998225;28;20069;-81
2021/11/02 00:04:03;;;;;;;49.83;29.90;;;8.70;96.50;;;;;;4997746;28;20027;-81
2021/11/02 00:06:29;;;;;;;43.20;27.77;;;8.70;96.60;;;;;;4997259;28;20535;-80
2021/11/02 00:08:55;;;;;;;46.40;29.30;;;8.70;96.60;;;;;;4979645;28;20026;-80
2021/11/02 00:11:21;;;;;;;44.72;28.23;;;8.70;96.90;;;;;;4997693;28;20034;-80
2021/11/02 00:13:48;;;;;;;45.13;28.92;;;8.70;97.20;;;;;;4980092;28;20041;-80
2021/11/02 00:16:17;;;;;;;47.55;28.65;;;8.70;97.60;;;;;;4979936;28;20027;-80
2021/11/02 00:18:51;;;;;;;41.92;26.45;;;8.70;97.40;;;;;;4980278;28;20382;-81
2021/11/02 00:21:16;;;;;;;42.03;26.00;;;8.70;97.30;;;;;;4997468;28;20045;-81
2021/11/02 00:23:42;;;;;;;40.28;25.98;;;8.70;97.50;;;;;;4979881;28;20027;-81
2021/11/02 00:26:12;;;;;;;46.03;26.92;;;8.70;97.20;;;;;;4979592;28;20091;-81
2021/11/02 00:28:39;;;;;;;47.47;27.85;;;8.70;97.30;;;;;;4997202;28;20041;-81
2021/11/02 00:31:05;;;;;;;43.72;26.45;;;8.80;97.40;;;;;;4979457;28;20029;-81
2021/11/02 00:33:30;;;;;;;40.45;25.00;;;8.70;97.20;;;;;;4996986;28;20030;-80
2021/11/02 00:35:57;;;;;;;37.22;24.40;;;8.70;97.40;;;;;;4979241;28;20073;-81
2021/11/02 00:38:23;;;;;;;42.78;26.48;;;8.70;97.40;;;;;;4996940;28;20022;-81
2021/11/02 00:40:49;;;;;;;42.28;27.45;;;8.70;97.50;;;;;;4997005;28;20034;-82
2021/11/02 00:43:16;;;;;;;40.05;25.58;;;8.70;97.70;;;;;;4996840;28;20382;-81
2021/11/02 00:45:41;;;;;;;41.45;25.92;;;8.70;97.50;;;;;;4996903;28;20022;-81
2021/11/02 00:48:12;;;;;;;46.78;28.17;;;8.60;97.80;;;;;;4996974;28;20088;-80
2021/11/02 00:50:44;;;;;;;40.25;25.83;;;8.60;98.30;;;;;;4996862;28;20377;-80
2021/11/02 00:53:10;;;;;;;39.58;24.75;;;8.60;98.20;;;;;;4979439;28;20456;-80
2021/11/02 00:55:36;;;;;;;34.65;23.08;;;8.60;98.40;;;;;;4979010;28;20117;-81
2021/11/02 00:58:05;;;;;;;44.65;26.52;;;8.60;98.30;;;;;;4996705;28;20440;-81
2021/11/02 01:00:31;;;;;;;43.90;26.33;;;8.60;98.50;;;;;;4996667;28;20030;-80
2021/11/02 01:02:57;;;;;;;43.83;26.50;;;8.60;98.70;;;;;;4996682;28;20034;-80
2021/11/02 01:05:22;;;;;;;42.45;25.95;;;8.50;98.80;;;;;;4995645;28;20035;-80
2021/11/02 01:07:54;;;;;;;41.50;25.33;;;8.50;98.90;;;;;;4995862;28;20094;-81
2021/11/02 01:10:20;;;;;;;41.97;24.60;;;8.50;98.90;;;;;;4979059;28;20038;-81
2021/11/02 01:12:47;;;;;;;38.67;23.13;;;8.50;99.20;;;;;;4996449;28;20031;-81
2021/11/02 01:15:20;;;;;;;36.45;23.40;;;8.50;99.20;;;;;;4996407;28;20046;-81
2021/11/02 01:17:46;;;;;;;41.03;25.23;;;8.50;99.70;;;;;;4978968;28;20458;-82
2021/11/02 01:20:14;;;;;;;35.47;21.98;;;8.50;99.50;;;;;;4978870;28;20074;-81
2021/11/02 01:22:42;;;;;;;37.90;23.08;;;8.40;99.50;;;;;;4978547;28;20030;-82
2021/11/02 01:25:08;;;;;;;39.10;23.10;;;8.40;99.60;;;;;;4996350;28;20045;-81
2021/11/02 01:27:35;;;;;;;38.35;23.50;;;8.50;99.60;;;;;;4978582;28;20034;-82
2021/11/02 01:30:03;;;;;;;37.67;23.67;;;8.40;99.70;;;;;;4996193;28;20088;-81
2021/11/02 01:32:29;;;;;;;37.42;23.38;;;8.40;99.60;;;;;;4978736;28;20037;-81
2021/11/02 01:34:56;;;;;;;38.10;24.60;;;8.40;99.90;;;;;;4978268;28;20104;-81
2021/11/02 01:37:22;;;;;;;42.25;25.67;;;8.40;99.90;;;;;;4995925;28;20027;-82
2021/11/02 01:39:48;;;;;;;37.47;24.15;;;8.50;99.90;;;;;;4978791;28;20030;-81
2021/11/02 01:42:13;;;;;;;38.60;23.15;;;8.40;99.90;;;;;;4978414;28;20434;-81
2021/11/02 01:44:39;;;;;;;41.72;26.00;;;8.40;99.90;;;;;;4978303;28;20081;-82
2021/11/02 01:47:05;;;;;;;39.83;23.73;;;8.40;99.90;;;;;;4978416;28;20058;-82
2021/11/02 01:49:34;;;;;;;41.03;25.10;;;8.40;99.90;;;;;;4995739;28;20424;-81
2021/11/02 01:52:02;;;;;;;40.05;24.88;;;8.40;99.90;;;;;;4978209;28;20033;-81
2021/11/02 01:54:27;;;;;;;41.13;25.73;;;8.40;99.90;;;;;;4977862;28;20050;-81
2021/11/02 01:56:53;;;;;;;39.20;25.15;;;8.40;99.90;;;;;;4995785;28;20084;-81
2021/11/02 01:59:22;;;;;;;46.67;27.33;;;8.30;99.90;;;;;;4978133;28;20457;-82
2021/11/02 02:02:12;;;;;;;39.15;24.48;;;8.30;99.90;;;;;;4978097;28;20116;-82
2021/11/02 02:05:13;;;;;;;41.35;23.95;;;8.30;99.90;;;;;;4995468;28;20045;-82
2021/11/02 02:07:54;;;;;;;39.95;24.58;;;8.30;99.90;;;;;;4995541;28;20026;-82
2021/11/02 02:10:23;;;;;;;38.13;24.27;;;8.30;99.90;;;;;;4995399;28;20109;-82
2021/11/02 02:12:57;;;;;;;38.00;24.30;;;8.20;99.90;;;;;;4977658;28;20125;-82
2021/11/02 02:15:39;;;;;;;34.90;22.70;;;8.20;99.90;;;;;;4995440;28;20429;-81
2021/11/02 02:18:20;;;;;;;41.00;25.05;;;8.30;99.90;;;;;;4977701;28;20033;-83
2021/11/02 02:21:05;;;;;;;42.03;26.65;;;8.20;99.90;;;;;;4995208;28;20101;-82
2021/11/02 02:23:48;;;;;;;40.92;25.08;;;8.20;99.90;;;;;;4978114;28;20038;-82
2021/11/02 02:26:41;;;;;;;40.15;24.30;;;8.20;99.90;;;;;;4994865;28;20507;-82
2021/11/02 02:29:08;;;;;;;38.58;23.88;;;8.20;99.90;;;;;;4977599;28;20422;-81
2021/11/02 02:31:38;;;;;;;35.88;22.27;;;8.20;99.90;;;;;;4994694;28;20026;-81
2021/11/02 02:34:11;;;;;;;37.67;21.70;;;8.20;99.90;;;;;;4978291;28;20113;-81
2021/11/02 02:36:38;;;;;;;34.72;20.98;;;8.20;99.90;;;;;;4977949;28;20358;-82
2021/11/02 02:39:04;;;;;;;34.00;21.70;;;8.20;99.90;;;;;;4977314;28;20037;-82
2021/11/02 02:41:31;;;;;;;34.83;19.98;;;8.20;99.90;;;;;;4977163;28;20124;-82
2021/11/02 02:43:56;;;;;;;39.53;22.23;;;8.20;99.90;;;;;;4977078;28;20030;-82
2021/11/02 02:46:23;;;;;;;34.65;22.13;;;8.20;99.90;;;;;;4977161;28;20048;-82
2021/11/02 02:48:50;;;;;;;34.25;21.33;;;8.20;99.90;;;;;;4994623;28;20030;-82
2021/11/02 02:51:18;;;;;;;35.00;20.52;;;8.20;99.90;;;;;;4977294;28;20030;-82
2021/11/02 02:53:45;;;;;;;35.08;20.48;;;8.10;99.90;;;;;;4977238;28;20058;-82
2021/11/02 02:56:12;;;;;;;37.03;22.00;;;8.10;99.90;;;;;;4976519;28;20054;-83
2021/11/02 02:58:42;;;;;;;36.55;22.65;;;8.10;99.90;;;;;;4976394;28;20084;-82
2021/11/02 03:01:09;;;;;;;33.17;20.20;;;8.00;99.90;;;;;;4976381;28;20100;-82
2021/11/02 03:03:40;;;;;;;32.70;19.88;;;8.10;99.90;;;;;;4993492;28;20030;-82
2021/11/02 03:06:08;;;;;;;32.00;19.35;;;8.00;99.90;;;;;;4976309;28;20465;-82
2021/11/02 03:08:34;;;;;;;31.85;19.38;;;8.00;99.90;;;;;;4970303;28;20042;-83
2021/11/02 03:11:02;;;;;;;34.08;20.67;;;8.00;99.90;;;;;;4966231;28;20030;-83
2021/11/02 03:13:32;;;;;;;32.13;19.23;;;8.00;99.90;;;;;;4957260;28;20031;-83
2021/11/02 03:16:05;;;;;;;31.35;18.60;;;7.90;99.90;;;;;;4957280;28;20038;-82
2021/11/02 04:32:41;;;;;;;29.75;17.48;;;7.70;99.90;;;;;;5111125;28;20093;-81
2021/11/02 05:47:09;;;;;;;23.17;13.75;;;7.90;99.90;;;;;;5096062;28;20043;-83
2021/11/02 05:57:51;;;;;;;22.52;13.35;;;8.00;99.90;;;;;;5095794;28;20055;-82
2021/11/02 06:00:23;;;;;;;23.75;12.95;;;8.00;99.90;;;;;;5095188;28;20024;-82
2021/11/02 06:29:02;;;;;;;20.80;11.73;;;8.20;99.90;;;;;;5095563;28;20031;-84
2021/11/02 06:31:35;;;;;;;19.30;11.20;;;8.20;99.90;;;;;;5094108;28;20031;-86
2021/11/02 06:37:04;;;;;;;18.65;10.85;;;8.20;99.90;;;;;;5095734;28;20036;-83
2021/11/02 07:19:28;;;;;;;17.83;11.10;;;8.50;99.90;;;;;;5093080;28;20458;-84
2021/11/02 07:24:53;;;;;;;19.65;11.07;;;8.60;99.90;;;;;;5093719;28;20125;-85
2021/11/02 08:46:49;;;;;;;29.98;15.98;;;9.00;99.90;;;;;;5088454;28;20026;-84
2021/11/02 08:49:15;;;;;;;28.92;14.57;;;9.10;99.90;;;;;;5086172;28;20025;-86
2021/11/02 08:51:41;;;;;;;23.92;12.82;;;9.10;99.90;;;;;;5093534;28;20035;-86
2021/11/02 08:54:08;;;;;;;30.15;15.13;;;9.10;99.90;;;;;;5087108;28;20020;-87
2021/11/02 08:56:35;;;;;;;24.05;13.30;;;9.20;99.90;;;;;;5076877;28;20410;-89
2021/11/02 08:59:00;;;;;;;27.80;13.38;;;9.20;99.90;;;;;;5087682;28;20032;-86
2021/11/02 09:01:28;;;;;;;24.52;13.25;;;9.20;99.90;;;;;;5087763;28;20024;-86
2021/11/02 09:04:00;;;;;;;21.55;12.57;;;9.20;99.90;;;;;;5087389;28;20031;-86
2021/11/02 09:06:27;;;;;;;21.73;13.38;;;9.30;99.90;;;;;;5085821;28;20029;-87
2021/11/02 09:08:57;;;;;;;21.52;12.13;;;9.30;99.90;;;;;;5082446;28;20058;-85
2021/11/02 09:11:24;;;;;;;24.20;13.20;;;9.30;99.90;;;;;;5080964;28;20025;-86
2021/11/02 09:13:55;;;;;;;22.60;12.27;;;9.30;99.90;;;;;;5084718;28;20028;-86
2021/11/02 09:16:22;;;;;;;22.88;12.52;;;9.40;99.90;;;;;;5089258;28;20016;-87
2021/11/02 09:18:50;;;;;;;26.25;13.65;;;9.40;99.90;;;;;;5086028;28;20033;-86
2021/11/02 09:21:21;;;;;;;23.50;12.75;;;9.40;99.90;;;;;;5082303;28;20032;-86
2021/11/02 09:23:48;;;;;;;;;;;9.40;99.90;;;;;;5085321;28;20028;-84
2021/11/02 09:26:20;;;;;;;18.35;11.02;;;9.40;99.90;;;;;;5090462;28;19942;-86
2021/11/02 09:28:48;;;;;;;19.85;10.77;;;9.40;99.90;;;;;;5083837;28;20478;-86
2021/11/02 09:31:19;;;;;;;20.88;11.77;;;9.40;99.90;;;;;;5083677;28;20020;-85
2021/11/02 09:33:44;;;;;;;20.38;11.32;;;9.40;99.90;;;;;;5087088;28;20162;-86
2021/11/02 09:36:14;;;;;;;21.98;12.10;;;9.40;99.90;;;;;;5084452;28;20119;-86
2021/11/02 09:38:58;;;;;;;18.77;11.35;;;9.40;99.90;;;;;;5086827;28;20031;-85
2021/11/02 09:41:55;;;;;;;20.25;11.88;;;9.50;99.90;;;;;;5085456;28;20069;-84
2021/11/02 09:44:45;;;;;;;21.45;11.25;;;9.50;99.90;;;;;;5089549;28;20073;-84
2021/11/02 09:47:29;;;;;;;20.60;12.05;;;9.50;99.90;;;;;;5084352;28;20072;-86
2021/11/02 09:50:25;;;;;;;19.23;11.68;;;9.50;99.90;;;;;;5085919;28;20380;-86
2021/11/02 09:53:05;;;;;;;22.58;12.88;;;9.60;99.90;;;;;;5084227;28;20473;-85
2021/11/02 09:56:08;;;;;;;20.73;11.45;;;9.60;99.90;;;;;;5082312;28;20036;-87
2021/11/02 09:59:11;;;;;;;22.13;11.77;;;9.60;99.90;;;;;;5085423;28;20032;-84
2021/11/02 10:01:57;;;;;;;17.58;11.10;;;9.60;99.90;;;;;;5082936;28;20028;-85
2021/11/02 10:04:39;;;;;;;20.25;11.68;;;9.60;99.90;;;;;;5083985;28;20078;-84
2021/11/02 10:07:17;;;;;;;21.50;11.50;;;9.60;99.90;;;;;;5078424;28;20024;-85
2021/11/02 10:10:01;;;;;;;21.67;11.82;;;9.60;99.90;;;;;;5083550;28;20028;-85
2021/11/02 10:13:02;;;;;;;20.13;12.52;;;9.60;99.90;;;;;;5086632;28;20024;-84
2021/11/02 10:15:48;;;;;;;24.77;14.20;;;9.60;99.90;;;;;;5081199;28;20024;-86
2021/11/02 10:18:20;;;;;;;22.38;13.05;;;9.50;99.90;;;;;;5086897;28;20039;-85
2021/11/02 10:21:01;;;;;;;21.17;12.43;;;9.50;99.90;;;;;;5079854;28;20111;-85
2021/11/02 10:24:01;;;;;;;21.52;12.70;;;9.60;99.90;;;;;;5084168;28;20546;-86
2021/11/02 10:26:35;;;;;;;22.30;13.30;;;9.60;99.90;;;;;;5086383;28;20430;-84
2021/11/02 10:29:05;;;;;;;25.50;13.20;;;9.60;99.90;;;;;;5087342;28;20039;-84
2021/11/02 10:31:37;;;;;;;20.10;12.45;;;9.70;99.90;;;;;;5082487;28;20016;-88
2021/11/02 10:34:31;;;;;;;20.45;11.95;;;9.70;99.90;;;;;;5086196;28;20433;-86
2021/11/02 10:37:23;;;;;;;20.33;11.63;;;9.70;99.90;;;;;;5085152;28;20028;-85
2021/11/02 10:40:15;;;;;;;19.95;11.68;;;9.70;99.90;;;;;;5084849;28;20509;-87
2021/11/02 10:42:55;;;;;;;20.92;12.55;;;9.70;99.90;;;;;;5083594;28;20033;-87
2021/11/02 10:45:25;;;;;;;23.58;11.75;;;9.70;99.90;;;;;;5083191;28;20039;-86
2021/11/02 10:48:05;;;;;;;23.15;12.85;;;9.70;99.90;;;;;;5083733;28;20018;-84
2021/11/02 10:50:37;;;;;;;21.10;12.30;;;9.70;99.90;;;;;;5083183;28;20048;-85
2021/11/02 10:53:07;;;;;;;22.35;12.50;;;9.80;99.90;;;;;;5082713;28;20025;-86
2021/11/02 10:55:47;;;;;;;22.75;13.27;;;9.80;99.90;;;;;;5080687;28;20441;-86
2021/11/02 10:58:35;;;;;;;22.50;13.27;;;9.80;99.90;;;;;;5082965;28;20020;-86
2021/11/02 11:01:10;;;;;;;22.30;13.38;;;9.90;99.90;;;;;;5082731;28;20116;-85
2021/11/02 11:03:37;;;;;;;25.10;13.90;;;9.80;99.90;;;;;;5083364;28;20070;-87
2021/11/02 11:06:10;;;;;;;25.23;14.07;;;9.90;99.90;;;;;;5082784;28;20032;-86
2021/11/02 11:08:45;;;;;;;21.52;12.98;;;9.90;99.90;;;;;;5080182;28;20070;-86
2021/11/02 11:11:21;;;;;;;22.85;13.52;;;9.90;99.90;;;;;;5081290;28;20066;-87
2021/11/02 11:13:49;;;;;;;21.15;13.13;;;9.90;99.90;;;;;;5083056;28;20105;-86
2021/11/02 11:16:27;;;;;;;24.73;14.07;;;9.90;99.90;;;;;;5080077;28;20028;-86
2021/11/02 11:19:14;;;;;;;25.67;15.27;;;10.00;99.90;;;;;;5081670;28;20029;-87
2021/11/02 11:21:41;;;;;;;29.23;16.25;;;10.00;99.90;;;;;;5080882;28;20047;-85
2021/11/02 11:24:55;;;;;;;27.95;15.98;;;10.00;99.90;;;;;;5085296;28;20531;-85
2021/11/02 11:27:22;;;;;;;24.85;15.50;;;10.00;99.90;;;;;;5079708;28;20046;-85
2021/11/02 11:29:49;;;;;;;27.42;15.35;;;10.00;99.90;;;;;;5083183;28;20056;-84
2021/11/02 11:32:17;;;;;;;26.88;15.73;;;10.00;99.90;;;;;;5083041;28;20021;-87
2021/11/02 11:34:45;;;;;;;27.70;16.20;;;10.00;99.90;;;;;;5082275;28;20028;-85
2021/11/02 11:37:13;;;;;;;27.17;16.33;;;10.00;99.90;;;;;;5083526;28;20028;-86
2021/11/02 11:39:42;;;;;;;28.08;17.15;;;10.10;99.90;;;;;;5077478;28;20029;-85
2021/11/02 11:42:12;;;;;;;30.55;17.17;;;10.10;99.90;;;;;;5080002;28;20019;-89
2021/11/02 11:44:43;;;;;;;29.98;17.85;;;10.10;99.90;;;;;;5081645;28;20054;-85
2021/11/02 11:47:14;;;;;;;31.90;18.38;;;10.10;99.90;;;;;;5084148;28;20036;-86
2021/11/02 11:49:45;;;;;;;32.95;17.55;;;10.10;99.90;;;;;;5072918;28;20461;-87
2021/11/02 11:52:11;;;;;;;;;;;10.10;99.90;;;;;;5083854;28;20020;-87
2021/11/02 11:54:56;;;;;;;28.70;16.08;;;10.10;99.90;;;;;;5081164;28;19908;-87
2021/11/02 11:57:36;;;;;;;25.00;15.48;;;10.10;99.90;;;;;;5086837;28;20052;-87
2021/11/02 12:00:05;;;;;;;24.30;14.48;;;10.10;99.90;;;;;;5084813;28;20115;-85
2021/11/02 12:02:50;;;;;;;28.10;16.00;;;10.10;99.90;;;;;;5081625;28;20087;-88
2021/11/02 12:05:17;;;;;;;30.70;17.70;;;10.20;99.90;;;;;;5081134;28;20032;-86
2021/11/02 12:08:23;;;;;;;27.05;16.17;;;10.20;99.90;;;;;;5081833;28;20051;-85
2021/11/02 12:10:52;;;;;;;25.67;14.55;;;10.20;99.90;;;;;;5090727;28;20028;-85
2021/11/02 12:13:19;;;;;;;27.92;16.30;;;10.20;99.90;;;;;;5086271;28;20409;-86
2021/11/02 12:15:59;;;;;;;28.85;16.60;;;10.20;99.90;;;;;;5081984;28;20036;-85
2021/11/02 12:18:27;;;;;;;24.60;14.95;;;10.20;99.90;;;;;;5086701;28;20021;-86
2021/11/02 12:20:54;;;;;;;28.00;15.48;;;10.20;99.90;;;;;;5085597;28;20115;-86
2021/11/02 12:23:40;;;;;;;24.75;15.18;;;10.20;99.90;;;;;;5084281;28;20028;-84
2021/11/02 12:26:08;;;;;;;27.52;15.38;;;10.30;99.90;;;;;;5083275;28;20493;-86
2021/11/02 12:28:46;;;;;;;25.23;14.75;;;10.30;99.90;;;;;;5084451;28;20063;-85
2021/11/02 12:31:14;;;;;;;26.88;15.25;;;10.30;99.90;;;;;;5080303;28;20462;-86
2021/11/02 12:33:47;;;;;;;28.50;14.38;;;10.30;99.90;;;;;;5084535;28;20028;-86
2021/11/02 12:36:21;;;;;;;27.00;15.68;;;10.30;99.90;;;;;;5083757;28;20124;-86
2021/11/02 12:38:47;;;;;;;27.52;16.38;;;10.40;99.90;;;;;;5084052;28;20024;-85
2021/11/02 12:41:21;;;;;;;27.33;15.77;;;10.40;99.90;;;;;;5086258;28;20103;-87
2021/11/02 12:44:05;;;;;;;27.85;15.90;;;10.40;99.90;;;;;;5085410;28;20028;-86
2021/11/02 12:46:33;;;;;;;25.92;15.20;;;10.40;99.90;;;;;;5087878;28;20439;-84
2021/11/02 12:49:07;;;;;;;24.00;15.50;;;10.40;99.90;;;;;;5086664;28;20031;-85
2021/11/02 12:51:39;;;;;;;25.95;15.60;;;10.50;99.90;;;;;;5086473;28;20031;-84
2021/11/02 12:54:09;;;;;;;24.98;15.52;;;10.50;99.90;;;;;;5087851;28;20024;-85
2021/11/02 12:56:36;;;;;;;26.42;16.95;;;10.50;99.90;;;;;;5087041;28;20052;-86
2021/11/02 12:59:12;;;;;;;25.08;15.63;;;10.50;99.90;;;;;;5084253;28;20630;-86
2021/11/02 13:01:38;;;;;;;29.75;18.15;;;10.50;99.90;;;;;;5082540;28;20016;-86
2021/11/02 13:04:12;;;;;;;28.08;17.83;;;10.60;99.90;;;;;;5083635;28;20023;-86
2021/11/02 13:06:39;;;;;;;23.85;15.70;;;10.60;99.90;;;;;;5086332;28;20016;-85
2021/11/02 13:09:05;;;;;;;26.73;16.40;;;10.60;99.90;;;;;;5080999;28;20016;-86
2021/11/02 13:11:34;;;;;;;26.35;16.08;;;10.60;99.90;;;;;;5083127;28;20025;-86
2021/11/02 13:14:03;;;;;;;24.65;15.02;;;10.60;99.90;;;;;;5084288;28;20032;-85
2021/11/02 13:16:50;;;;;;;24.83;16.13;;;10.60;99.90;;;;;;5084040;28;20044;-85
2021/11/02 13:19:16;;;;;;;26.38;17.02;;;10.60;99.90;;;;;;5080218;28;20044;-87
2021/11/02 13:21:41;;;;;;;28.05;18.05;;;10.60;99.90;;;;;;5085061;28;20120;-86
2021/11/02 13:24:14;;;;;;;29.25;17.88;;;10.70;99.90;;;;;;5085067;28;20105;-86
2021/11/02 13:26:42;;;;;;;35.92;21.27;;;10.70;99.90;;;;;;5085610;28;20109;-86
2021/11/02 13:29:21;;;;;;;33.55;19.20;;;10.70;99.90;;;;;;5083396;28;20020;-86
2021/11/02 13:31:48;;;;;;;31.90;18.65;;;10.70;99.90;;;;;;5079287;28;20029;-84
2021/11/02 13:34:31;;;;;;;35.03;20.13;;;10.70;99.90;;;;;;5082610;28;20420;-85
2021/11/02 13:37:05;;;;;;;30.35;18.70;;;10.70;99.90;;;;;;5087949;28;20077;-86
2021/11/02 13:39:50;;;;;;;34.97;20.50;;;10.70;99.90;;;;;;5087297;28;20020;-85
2021/11/02 13:42:16;;;;;;;31.27;18.55;;;10.70;99.90;;;;;;5085354;28;20035;-86
2021/11/02 13:44:45;;;;;;;28.80;17.90;;;10.70;99.90;;;;;;5086159;28;20016;-84
2021/11/02 13:47:11;;;;;;;29.73;18.58;;;10.70;99.90;;;;;;5084125;28;20020;-83
2021/11/02 13:49:37;;;;;;;30.65;18.17;;;10.70;99.90;;;;;;5085284;28;20024;-82
2021/11/02 13:52:04;;;;;;;26.15;16.90;;;10.70;99.90;;;;;;5078093;28;20028;-80
2021/11/02 13:54:30;;;;;;;29.98;16.63;;;10.70;99.90;;;;;;5072618;28;20105;-82
2021/11/02 13:57:01;;;;;;;30.35;17.00;;;10.70;99.90;;;;;;5072255;28;20048;-81
2021/11/02 13:59:26;;;;;;;;;;;10.70;99.90;;;;;;5075144;28;20109;-79
2021/11/02 14:01:55;;;;;;;29.80;16.92;;;10.70;99.90;;;;;;5074659;28;19908;-80
2021/11/02 14:04:43;;;;;;;33.80;18.83;;;10.70;99.90;;;;;;5073164;28;20025;-81
2021/11/02 14:07:18;;;;;;;31.73;17.88;;;10.70;99.90;;;;;;5080953;28;20025;-84
2021/11/02 14:10:06;;;;;;;34.80;18.52;;;10.70;99.90;;;;;;5084958;28;20035;-84
2021/11/02 14:12:53;;;;;;;28.17;16.63;;;10.70;99.90;;;;;;5084564;28;20093;-84
2021/11/02 14:15:21;;;;;;;32.00;17.15;;;10.70;99.90;;;;;;5081567;28;20025;-84
2021/11/02 14:18:08;;;;;;;32.55;17.77;;;10.70;99.90;;;;;;5081914;28;20036;-85
2021/11/02 14:20:48;;;;;;;27.63;15.88;;;10.70;99.90;;;;;;5083951;28;20037;-84
2021/11/02 14:23:29;;;;;;;28.25;16.20;;;10.70;99.90;;;;;;5082442;28;20020;-83
2021/11/02 14:26:14;;;;;;;;;;;10.80;99.90;;;;;;5080537;28;20071;-83
2021/11/02 14:28:46;;;;;;;32.67;18.30;;;10.70;99.90;;;;;;5083399;28;20299;-83
2021/11/02 14:31:34;;;;;;;29.92;17.08;;;10.70;99.90;;;;;;5080921;28;20123;-83
2021/11/02 14:34:00;;;;;;;30.27;17.40;;;10.70;99.90;;;;;;5083170;28;20067;-81
2021/11/02 14:36:40;;;;;;;30.15;16.77;;;10.70;99.90;;;;;;5081354;28;20629;-83
2021/11/02 14:39:13;;;;;;;30.13;16.67;;;10.70;99.90;;;;;;5082240;28;20028;-84
2021/11/02 14:41:48;;;;;;;29.00;16.45;;;10.70;99.90;;;;;;5083026;28;20115;-83
2021/11/02 14:44:13;;;;;;;32.72;18.02;;;10.70;99.90;;;;;;5083948;28;20019;-83
2021/11/02 14:46:40;;;;;;;30.85;17.73;;;10.70;99.90;;;;;;5082438;28;20512;-83
2021/11/02 14:49:09;;;;;;;29.33;16.17;;;10.70;99.90;;;;;;5082425;28;20051;-83
2021/11/02 14:51:35;;;;;;;26.73;16.63;;;10.80;99.90;;;;;;5082759;28;20020;-81
2021/11/02 14:54:21;;;;;;;27.35;14.63;;;10.70;99.90;;;;;;5082609;28;20019;-82
2021/11/02 14:56:47;;;;;;;31.13;17.85;;;10.70;99.90;;;;;;5082212;28;20071;-83
2021/11/02 14:59:15;;;;;;;27.33;15.05;;;10.70;99.90;;;;;;5082348;28;20111;-83
2021/11/02 15:01:41;;;;;;;28.30;15.80;;;10.80;99.90;;;;;;5083022;28;20107;-83
2021/11/02 15:04:11;;;;;;;27.90;14.65;;;10.80;99.90;;;;;;5083662;28;20059;-82
2021/11/02 15:06:39;;;;;;;24.73;13.65;;;10.80;99.90;;;;;;5082612;28;20039;-83
2021/11/02 15:09:29;;;;;;;27.80;15.82;;;10.80;99.90;;;;;;5081407;28;20039;-84
2021/11/02 15:11:55;;;;;;;24.65;14.63;;;10.80;99.90;;;;;;5083421;28;20116;-83
2021/11/02 15:14:27;;;;;;;29.40;15.27;;;10.80;99.90;;;;;;5078606;28;20099;-85
2021/11/02 15:17:04;;;;;;;30.23;17.90;;;10.80;99.90;;;;;;5075266;28;20035;-83
2021/11/02 15:19:35;;;;;;;37.13;19.58;;;10.80;99.90;;;;;;5079342;28;20071;-85
2021/11/02 15:22:13;;;;;;;39.03;20.60;;;10.80;99.90;;;;;;5077557;28;20411;-84
2021/11/02 15:24:42;;;;;;;48.88;26.85;;;10.90;99.90;;;;;;5077291;28;20028;-84
2021/11/02 15:27:17;;;;;;;47.92;26.95;;;10.80;99.90;;;;;;5076580;28;20024;-82
2021/11/02 15:29:53;;;;;;;49.25;26.38;;;10.80;99.90;;;;;;5076988;28;20024;-83
2021/11/02 15:32:21;;;;;;;38.67;22.02;;;10.80;99.90;;;;;;5076405;28;20455;-83
2021/11/02 15:34:48;;;;;;;40.05;22.35;;;10.80;99.90;;;;;;5078806;28;20029;-85
2021/11/02 15:37:16;;;;;;;41.38;23.25;;;10.80;99.90;;;;;;5075829;28;20491;-82
2021/11/02 15:39:43;;;;;;;39.28;21.90;;;10.80;99.90;;;;;;5076406;28;20024;-83
2021/11/02 15:42:29;;;;;;;36.90;19.33;;;10.80;99.90;;;;;;5076604;28;20020;-88
2021/11/02 15:45:03;;;;;;;34.25;19.58;;;10.80;99.90;;;;;;5076439;28;20029;-85
2021/11/02 15:47:30;;;;;;;29.23;17.27;;;10.80;99.90;;;;;;5076388;28;20021;-83
2021/11/02 15:50:03;;;;;;;29.67;16.60;;;10.80;99.90;;;;;;5075365;28;20028;-88
2021/11/02 15:52:35;;;;;;;29.95;17.60;;;10.80;99.90;;;;;;5075704;28;20016;-86
2021/11/02 15:55:13;;;;;;;30.60;17.27;;;10.80;99.90;;;;;;5077797;28;20036;-83
2021/11/02 15:57:53;;;;;;;24.90;15.45;;;10.70;99.90;;;;;;5074046;28;20044;-83
2021/11/02 16:00:26;;;;;;;;;;;10.80;99.90;;;;;;5078353;28;20020;-83
2021/11/02 16:02:55;;;;;;;21.95;12.98;;;10.70;99.90;;;;;;5074818;28;19913;-82
2021/11/02 16:05:29;;;;;;;25.42;14.63;;;10.70;99.90;;;;;;5071391;28;20478;-83
2021/11/02 16:07:59;;;;;;;25.55;15.75;;;10.70;99.90;;;;;;5076379;28;20020;-81
2021/11/02 16:10:34;;;;;;;22.67;13.80;;;10.70;99.90;;;;;;5074298;28;20027;-83
2021/11/02 16:13:08;;;;;;;26.67;15.90;;;10.70;99.90;;;;;;5075006;28;20262;-83
2021/11/02 16:15:37;;;;;;;24.17;14.68;;;10.70;99.90;;;;;;5072960;28;20037;-87
2021/11/02 16:18:24;;;;;;;28.30;16.65;;;10.70;99.90;;;;;;5075233;28;20020;-83
2021/11/02 16:20:58;;;;;;;25.10;14.65;;;10.70;99.90;;;;;;5076033;28;20029;-84
2021/11/02 16:23:36;;;;;;;26.17;14.80;;;10.60;99.90;;;;;;5072996;28;20016;-85
2021/11/02 16:26:24;;;;;;;22.52;14.18;;;10.60;99.90;;;;;;5068710;28;20016;-86
2021/11/02 16:28:51;;;;;;;21.88;13.15;;;10.60;99.90;;;;;;5069996;28;20025;-82
2021/11/02 16:31:29;;;;;;;19.13;12.15;;;10.50;99.90;;;;;;5076623;28;20429;-87
2021/11/02 16:33:57;;;;;;;18.48;12.27;;;10.50;99.90;;;;;;5069271;28;20025;-85
2021/11/02 16:36:38;;;;;;;19.95;12.32;;;10.50;99.90;;;;;;5068383;28;20067;-84
2021/11/02 16:39:19;;;;;;;;;;;10.40;99.90;;;;;;5068924;28;20463;-89
2021/11/02 16:41:58;;;;;;;17.35;11.52;;;10.40;99.90;;;;;;5073952;28;19905;-89
2021/11/02 16:44:36;;;;;;;15.43;10.68;;;10.40;99.90;;;;;;5067882;28;20029;-85
2021/11/02 16:47:11;;;;;;;16.50;10.93;;;10.30;99.90;;;;;;5067724;28;20058;-83
2021/11/02 16:49:38;;;;;;;18.77;11.57;;;10.30;99.90;;;;;;5067067;28;20024;-85
2021/11/02 16:52:06;;;;;;;16.08;10.93;;;10.30;99.90;;;;;;5069055;28;20016;-85
2021/11/02 16:54:34;;;;;;;17.25;12.13;;;10.20;99.90;;;;;;5067397;28;20679;-85
2021/11/02 16:57:20;;;;;;;18.35;12.45;;;10.20;99.90;;;;;;5066094;28;20063;-83
2021/11/02 17:00:01;;;;;;;17.27;10.52;;;10.20;99.90;;;;;;5065622;28;20029;-83
2021/11/02 17:02:37;;;;;;;15.85;11.25;;;10.20;99.90;;;;;;5066477;28;20032;-85
2021/11/02 17:05:22;;;;;;;15.05;10.20;;;10.10;99.90;;;;;;5069752;28;20063;-86
2021/11/02 17:08:04;;;;;;;19.98;12.98;;;10.10;99.90;;;;;;5070743;28;20028;-85
2021/11/02 17:10:42;;;;;;;17.00;11.68;;;10.10;99.90;;;;;;5068541;28;20028;-86
2021/11/02 17:13:28;;;;;;;16.05;11.10;;;10.10;99.90;;;;;;5068495;28;20082;-87
2021/11/02 17:15:59;;;;;;;16.00;10.80;;;10.00;99.90;;;;;;5069712;28;20040;-84
2021/11/02 17:18:45;;;;;;;13.70;9.32;;;10.00;99.90;;;;;;5069284;28;20086;-85
2021/11/02 17:21:13;;;;;;;13.13;9.18;;;10.00;99.90;;;;;;5069458;28;20751;-84
2021/11/02 17:23:45;;;;;;;14.73;9.60;;;10.00;99.90;;;;;;5069078;28;20028;-84
2021/11/02 17:26:13;;;;;;;13.85;9.32;;;10.00;99.90;;;;;;5068657;28;20033;-84
2021/11/02 17:28:44;;;;;;;14.85;9.45;;;10.00;99.90;;;;;;5069346;28;20024;-83
2021/11/02 17:31:12;;;;;;;17.45;11.60;;;10.00;99.90;;;;;;5067826;28;20032;-85
2021/11/02 17:33:39;;;;;;;14.75;10.70;;;10.00;99.90;;;;;;5068488;28;20039;-90
2021/11/02 17:36:07;;;;;;;17.02;11.38;;;10.00;99.90;;;;;;5067727;28;20039;-84
2021/11/02 17:38:37;;;;;;;16.15;10.50;;;10.00;99.90;;;;;;5069390;28;20578;-86
2021/11/02 17:41:04;;;;;;;17.15;11.95;;;10.00;99.90;;;;;;5067975;28;20107;-85
2021/11/02 17:43:32;;;;;;;15.63;10.73;;;10.00;99.90;;;;;;5067941;28;20036;-85
2021/11/02 17:45:59;;;;;;;15.30;10.07;;;10.00;99.90;;;;;;5068219;28;20024;-83
2021/11/02 17:48:30;;;;;;;13.15;9.48;;;9.90;99.90;;;;;;5067535;28;20459;-85
2021/11/02 17:50:56;;;;;;;16.95;11.95;;;10.00;99.90;;;;;;5068512;28;20051;-84
2021/11/02 17:53:23;;;;;;;16.63;11.35;;;10.00;99.90;;;;;;5068074;28;20025;-86
2021/11/02 17:55:52;;;;;;;14.88;10.98;;;10.00;99.90;;;;;;5068091;28;20044;-83
2021/11/02 17:58:21;;;;;;;16.05;11.82;;;9.90;99.90;;;;;;5068598;28;20193;-85
2021/11/02 18:00:50;;;;;;;17.58;11.30;;;9.90;99.90;;;;;;5068198;28;20040;-83
2021/11/02 18:03:18;;;;;;;16.15;11.77;;;9.90;99.90;;;;;;5067931;28;20024;-85
2021/11/02 18:05:44;;;;;;;16.73;11.32;;;10.00;99.90;;;;;;5067991;28;20031;-83
2021/11/02 18:08:12;;;;;;;17.02;11.80;;;10.00;99.90;;;;;;5067087;28;20025;-84